Main page
METAR-TAF:

METAR-TAF

Airports :

Shaikh Zayed International Airport

Rahim Yar Khan, Pakistan

latitude: 28-23-02N, longitude: 70-16-47E, elevation: 83 m

METAR: missing

Time: 03:34 (22:34 UTC)

Forecast

The report was made 6 hours and 49 minutes ago, at 15:45 UTC
Forecast valid from 05 at 18 UTC to 06 at 12 UTC
Wind 10 kt from the South
Visibility: 4000 m
Few clouds at a height of 4000 ft
Scattered clouds at a height of 12000 ft
smoke

TAF: OPRK 051545Z 0518/0612 18010KT 4000 FU FEW040 SCT120 TN29/0601Z TX28/06010Z

Weather observations and forecasts of more than 4000 airports (METAR and TAF reports).

The available stations are represented by yellow and red dots on the map.

Hover mouse over dot to see the name of the station.

Then click to see weather observations and forecasts.

To change the map : click on the green buttons with a black cross to zoom in, on the green button with a dash to zoom out, or on the green arrows for adjacent maps.


METAR-TAF: